THY6XZ LTBS-LTFM
Flight info
| Callsign | THY6XZ |
|---|---|
| Flight time | N/A |
| Altitude | 37000 |
| Route | RIVBU DCT BAGLU DCT ATGIT UT58 EMKUD/N0478F390 UT58 KFK/N0479F380 UM855 SISPI |
| Aircraft | B77W/H-SDE1E2E3FGHIJ2J3J4J5M1RWXY/LB1D1 |
Departure
| Time | 2026-04-29 16:54 |
|---|---|
| Airport | Dalaman International Airport (LTBS) |
Arrival
| Time | N/A |
|---|---|
| Airport | İstanbul Airport (LTFM) |
| Time | Latitude | Longitude | Altitude | Speed | Heading |
|---|---|---|---|---|---|
| 2026-04-29 16:35 | 36.72460 | 28.79110 | 17 ft | 0 kts | 285° |
| 2026-04-29 16:48 | 36.72457 | 28.79127 | 17 ft | 4 kts | 286° |
| 2026-04-29 16:48 | 36.72449 | 28.79158 | 20 ft | 4 kts | 291° |
| 2026-04-29 16:49 | 36.72440 | 28.79182 | 17 ft | 3 kts | 311° |
| 2026-04-29 16:49 | 36.72427 | 28.79194 | 21 ft | 2 kts | 1° |
| 2026-04-29 16:49 | 36.72415 | 28.79193 | 20 ft | 2 kts | 11° |
| 2026-04-29 16:49 | 36.72404 | 28.79190 | 20 ft | 2 kts | 16° |
| 2026-04-29 16:50 | 36.72393 | 28.79186 | 18 ft | 2 kts | 17° |
| 2026-04-29 16:50 | 36.72391 | 28.79185 | 18 ft | 0 kts | 17° |
| 2026-04-29 16:51 | 36.72403 | 28.79189 | 20 ft | 5 kts | 16° |
| 2026-04-29 16:51 | 36.72455 | 28.79208 | 19 ft | 11 kts | 16° |
| 2026-04-29 16:51 | 36.72554 | 28.79244 | 17 ft | 18 kts | 16° |
| 2026-04-29 16:51 | 36.72675 | 28.79313 | 17 ft | 20 kts | 57° |
| 2026-04-29 16:52 | 36.72683 | 28.79363 | 17 ft | 5 kts | 94° |
| 2026-04-29 16:52 | 36.72671 | 28.79431 | 17 ft | 11 kts | 105° |
| 2026-04-29 16:52 | 36.72645 | 28.79549 | 17 ft | 17 kts | 105° |
| 2026-04-29 16:52 | 36.72559 | 28.79666 | 17 ft | 21 kts | 173° |
| 2026-04-29 16:53 | 36.72511 | 28.79656 | 17 ft | 0 kts | 194° |
| 2026-04-29 16:53 | 36.72420 | 28.79626 | 17 ft | 37 kts | 194° |
| 2026-04-29 16:53 | 36.71924 | 28.79459 | 17 ft | 128 kts | 195° |
| 2026-04-29 16:53 | 36.70697 | 28.79042 | 336 ft | 211 kts | 195° |
| 2026-04-29 16:54 | 36.69331 | 28.78635 | 1089 ft | 204 kts | 192° |
| 2026-04-29 16:54 | 36.67940 | 28.78266 | 1777 ft | 201 kts | 192° |
| 2026-04-29 16:54 | 36.66553 | 28.77836 | 2153 ft | 224 kts | 196° |
| 2026-04-29 16:54 | 36.64962 | 28.77204 | 2734 ft | 249 kts | 197° |
| 2026-04-29 16:55 | 36.63846 | 28.76776 | 3434 ft | 253 kts | 197° |
| 2026-04-29 16:55 | 36.62137 | 28.76155 | 4513 ft | 259 kts | 196° |
| 2026-04-29 16:55 | 36.60380 | 28.75541 | 5589 ft | 264 kts | 195° |
| 2026-04-29 16:55 | 36.58597 | 28.74959 | 6672 ft | 265 kts | 189° |
| 2026-04-29 16:56 | 36.56766 | 28.75140 | 7564 ft | 271 kts | 158° |
| 2026-04-29 16:56 | 36.54906 | 28.77128 | 8942 ft | 272 kts | 117° |
| 2026-04-29 16:56 | 36.54440 | 28.78602 | 9617 ft | 272 kts | 106° |
| 2026-04-29 16:56 | 36.53935 | 28.80917 | 10399 ft | 282 kts | 101° |
| 2026-04-29 16:57 | 36.53939 | 28.83419 | 10771 ft | 307 kts | 73° |
| 2026-04-29 16:57 | 36.55019 | 28.85804 | 11033 ft | 337 kts | 45° |
| 2026-04-29 16:57 | 36.57025 | 28.87501 | 11255 ft | 363 kts | 25° |
| 2026-04-29 16:57 | 36.59396 | 28.88786 | 11935 ft | 378 kts | 22° |
| 2026-04-29 16:58 | 36.61850 | 28.90059 | 12929 ft | 385 kts | 22° |
| 2026-04-29 16:58 | 36.64316 | 28.91360 | 14047 ft | 389 kts | 22° |
| 2026-04-29 16:58 | 36.66812 | 28.92717 | 15069 ft | 393 kts | 22° |
| 2026-04-29 16:58 | 36.69329 | 28.94122 | 16076 ft | 398 kts | 23° |
| 2026-04-29 16:59 | 36.71856 | 28.95562 | 17046 ft | 403 kts | 23° |
| 2026-04-29 16:59 | 36.74416 | 28.97038 | 17999 ft | 409 kts | 24° |
| 2026-04-29 16:59 | 36.77019 | 28.98550 | 18869 ft | 414 kts | 24° |
| 2026-04-29 16:59 | 36.79594 | 29.00053 | 19704 ft | 419 kts | 24° |
| 2026-04-29 17:00 | 36.82245 | 29.01602 | 20550 ft | 423 kts | 23° |
| 2026-04-29 17:00 | 36.84890 | 29.03150 | 21352 ft | 428 kts | 23° |
| 2026-04-29 17:00 | 36.87588 | 29.04729 | 22167 ft | 432 kts | 23° |
| 2026-04-29 17:00 | 36.90341 | 29.06339 | 22974 ft | 437 kts | 23° |
| 2026-04-29 17:01 | 36.93117 | 29.07965 | 23707 ft | 442 kts | 23° |
| 2026-04-29 17:01 | 36.95915 | 29.09605 | 24322 ft | 447 kts | 23° |
| 2026-04-29 17:01 | 36.98743 | 29.11263 | 24967 ft | 452 kts | 23° |
| 2026-04-29 17:01 | 37.01602 | 29.12942 | 25585 ft | 456 kts | 23° |
| 2026-04-29 17:02 | 37.04468 | 29.14627 | 26192 ft | 460 kts | 23° |
| 2026-04-29 17:02 | 37.07365 | 29.16293 | 26773 ft | 464 kts | 22° |
| 2026-04-29 17:02 | 37.10315 | 29.17981 | 27327 ft | 468 kts | 22° |
| 2026-04-29 17:02 | 37.13287 | 29.19708 | 27896 ft | 473 kts | 23° |
| 2026-04-29 17:03 | 37.16272 | 29.21469 | 28442 ft | 477 kts | 23° |
| 2026-04-29 17:03 | 37.19262 | 29.23252 | 28933 ft | 480 kts | 24° |
| 2026-04-29 17:03 | 37.22304 | 29.25074 | 29427 ft | 484 kts | 24° |
| 2026-04-29 17:03 | 37.25352 | 29.26900 | 29859 ft | 487 kts | 24° |
| 2026-04-29 17:04 | 37.28435 | 29.28716 | 30254 ft | 489 kts | 21° |
| 2026-04-29 17:04 | 37.31593 | 29.30118 | 30704 ft | 487 kts | 13° |
| 2026-04-29 17:04 | 37.34883 | 29.31040 | 31246 ft | 484 kts | 8° |
| 2026-04-29 17:04 | 37.38218 | 29.31526 | 31777 ft | 480 kts | 1° |
| 2026-04-29 17:05 | 37.41549 | 29.31609 | 32284 ft | 478 kts | 359° |
| 2026-04-29 17:05 | 37.44868 | 29.31622 | 32754 ft | 478 kts | 358° |
| 2026-04-29 17:05 | 37.48190 | 29.31624 | 33220 ft | 477 kts | 358° |
| 2026-04-29 17:05 | 37.51444 | 29.31636 | 33695 ft | 476 kts | 358° |
| 2026-04-29 17:06 | 37.54751 | 29.31664 | 34161 ft | 475 kts | 359° |
| 2026-04-29 17:06 | 37.58054 | 29.31705 | 34547 ft | 474 kts | 359° |
| 2026-04-29 17:06 | 37.61305 | 29.31754 | 34896 ft | 475 kts | 359° |
| 2026-04-29 17:06 | 37.64656 | 29.31809 | 35262 ft | 474 kts | 358° |
| 2026-04-29 17:07 | 37.67908 | 29.31864 | 35620 ft | 474 kts | 358° |
| 2026-04-29 17:07 | 37.71199 | 29.31919 | 35984 ft | 473 kts | 358° |
| 2026-04-29 17:07 | 37.74482 | 29.31973 | 36326 ft | 473 kts | 358° |
| 2026-04-29 17:07 | 37.77770 | 29.32026 | 36676 ft | 473 kts | 358° |
| 2026-04-29 17:08 | 37.81059 | 29.32079 | 36988 ft | 473 kts | 358° |
| 2026-04-29 17:08 | 37.84373 | 29.32131 | 37023 ft | 478 kts | 358° |
| 2026-04-29 17:08 | 37.91015 | 29.32239 | 37041 ft | 474 kts | 358° |
| 2026-04-29 17:09 | 37.97519 | 29.32345 | 37043 ft | 470 kts | 358° |
| 2026-04-29 17:09 | 38.03950 | 29.33638 | 37056 ft | 477 kts | 22° |
| 2026-04-29 17:10 | 38.06750 | 29.35928 | 37054 ft | 485 kts | 39° |
| 2026-04-29 17:10 | 38.09042 | 29.39099 | 37046 ft | 491 kts | 53° |
| 2026-04-29 17:10 | 38.10614 | 29.42963 | 37057 ft | 495 kts | 67° |
| 2026-04-29 17:10 | 38.11826 | 29.47076 | 37052 ft | 498 kts | 68° |
| 2026-04-29 17:11 | 38.14191 | 29.55304 | 37057 ft | 501 kts | 68° |
| 2026-04-29 17:11 | 38.16711 | 29.63574 | 37046 ft | 503 kts | 66° |
| 2026-04-29 17:12 | 38.19458 | 29.71744 | 37042 ft | 501 kts | 59° |
| 2026-04-29 17:12 | 38.22603 | 29.77891 | 37054 ft | 497 kts | 50° |
| 2026-04-29 17:13 | 38.28050 | 29.85405 | 37053 ft | 494 kts | 43° |
| 2026-04-29 17:13 | 38.32856 | 29.91565 | 37053 ft | 493 kts | 43° |
| 2026-04-29 17:14 | 38.37647 | 29.97801 | 37050 ft | 493 kts | 43° |
| 2026-04-29 17:14 | 38.42413 | 30.04084 | 37048 ft | 493 kts | 43° |
| 2026-04-29 17:15 | 38.47167 | 30.10375 | 37059 ft | 492 kts | 43° |
| 2026-04-29 17:15 | 38.51878 | 30.16615 | 37059 ft | 491 kts | 43° |
| 2026-04-29 17:16 | 38.56687 | 30.22995 | 37068 ft | 491 kts | 43° |
| 2026-04-29 17:16 | 38.61423 | 30.29290 | 37067 ft | 492 kts | 43° |
| 2026-04-29 17:17 | 38.66195 | 30.35659 | 37070 ft | 492 kts | 43° |
| 2026-04-29 17:17 | 38.70919 | 30.41978 | 37074 ft | 492 kts | 44° |
| 2026-04-29 17:18 | 38.75762 | 30.48141 | 37064 ft | 487 kts | 32° |
| 2026-04-29 17:18 | 38.78830 | 30.50220 | 37070 ft | 478 kts | 14° |
| 2026-04-29 17:18 | 38.82060 | 30.51015 | 37091 ft | 470 kts | 359° |
| 2026-04-29 17:19 | 38.85320 | 30.50837 | 37082 ft | 466 kts | 348° |
| 2026-04-29 17:19 | 38.88355 | 30.49866 | 37072 ft | 461 kts | 334° |
| 2026-04-29 17:19 | 38.94059 | 30.46208 | 37089 ft | 460 kts | 330° |
| 2026-04-29 17:20 | 38.99830 | 30.42340 | 37095 ft | 462 kts | 330° |
| 2026-04-29 17:20 | 39.05579 | 30.38579 | 37095 ft | 464 kts | 330° |
| 2026-04-29 17:21 | 39.11351 | 30.34857 | 37089 ft | 465 kts | 331° |
| 2026-04-29 17:21 | 39.17134 | 30.31132 | 37097 ft | 464 kts | 331° |
| 2026-04-29 17:22 | 39.22897 | 30.27409 | 37095 ft | 463 kts | 330° |
| 2026-04-29 17:22 | 39.28409 | 30.23839 | 37098 ft | 461 kts | 330° |
| 2026-04-29 17:23 | 39.34099 | 30.20147 | 37098 ft | 460 kts | 330° |
| 2026-04-29 17:23 | 39.39941 | 30.16348 | 36612 ft | 463 kts | 330° |
| 2026-04-29 17:24 | 39.42853 | 30.14453 | 36164 ft | 458 kts | 330° |
| 2026-04-29 17:24 | 39.45676 | 30.12620 | 35737 ft | 452 kts | 331° |
| 2026-04-29 17:24 | 39.48514 | 30.10934 | 35309 ft | 446 kts | 334° |
| 2026-04-29 17:24 | 39.51342 | 30.09361 | 34887 ft | 441 kts | 334° |
| 2026-04-29 17:25 | 39.54159 | 30.07827 | 34470 ft | 436 kts | 334° |
| 2026-04-29 17:25 | 39.56932 | 30.06317 | 34068 ft | 431 kts | 334° |
| 2026-04-29 17:25 | 39.59683 | 30.04806 | 33599 ft | 427 kts | 334° |
| 2026-04-29 17:25 | 39.62358 | 30.03326 | 33147 ft | 423 kts | 334° |
| 2026-04-29 17:26 | 39.65105 | 30.01798 | 32690 ft | 420 kts | 334° |
| 2026-04-29 17:26 | 39.67848 | 30.00267 | 32239 ft | 418 kts | 334° |
| 2026-04-29 17:26 | 39.69623 | 29.99276 | 31934 ft | 418 kts | 334° |
| 2026-04-29 17:26 | 39.71213 | 29.98388 | 31712 ft | 419 kts | 334° |
| 2026-04-29 17:27 | 39.73884 | 29.96896 | 31281 ft | 421 kts | 334° |
| 2026-04-29 17:27 | 39.75811 | 29.95819 | 30983 ft | 421 kts | 334° |
| 2026-04-29 17:27 | 39.78471 | 29.94330 | 30573 ft | 419 kts | 334° |
| 2026-04-29 17:27 | 39.81112 | 29.92848 | 30160 ft | 418 kts | 334° |
| 2026-04-29 17:28 | 39.83777 | 29.91349 | 29684 ft | 417 kts | 334° |
| 2026-04-29 17:28 | 39.85539 | 29.90359 | 29373 ft | 415 kts | 334° |